Kirkland, IL (60146)

10:40 AM CDT on September 05, 2015 (GMT -0500)
Country Meadows | | Change Station
CLOSE
Current Station
Personal Weather Station
Location: Kirkland, IL
Elevation: 764 ft
Nearby Weather Stations

Elev 764 ft 42.08 °N, 88.85 °W | Updated 14 minutes ago

Overcast
Overcast
80.3 °F
Feels Like 85 °F
N
4.0
Wind Variable Wind from SW
Gusts 5.0 mph

Today
High -- | Low -- °F
--% Chance of Precip.
Yesterday
High -- | Low -- °F
Precip. -- in
6:24 AM 7:22 PM
Waning Gibbous, 47% visible
Pressure 30.09 in
Visibility 7.0 miles
Clouds Few 8000 ft
Mostly Cloudy 11000 ft
Overcast 16000 ft
Heat Index 85 °F
Dew Point 73 °F
Humidity 78%
Rainfall 0.00 in
Snow Depth Not available.
UV 1 out of 12
Pollen 4.90 out of 12
Air Quality Not available.
Flu Activity Not available.
METAR KRFD 051454Z 19005KT 7SM -RA FEW080 BKN110 OVC160 24/21 A3010 RMK AO2 RAB35 SLP189 P0000 60000 T02440211 51009
Pressure 30.09 in
Visibility 7.0 miles
Clouds Few 8000 ft
Mostly Cloudy 11000 ft
Overcast 16000 ft
Heat Index 85 °F
Dew Point 73 °F
Humidity 78%
Rainfall 0.00 in
Snow Depth Not available.
UV 1 out of 12
Pollen 4.90 out of 12
Air Quality Not available.
Flu Activity Not available.
METAR KRFD 051454Z 19005KT 7SM -RA FEW080 BKN110 OVC160 24/21 A3010 RMK AO2 RAB35 SLP189 P0000 60000 T02440211 51009

10-Day Weather Forecast

×

Almanac

Astronomy

Sep. 05, 2015 Rise Set
Actual Time
Civil Twilight
Nautical Twilight
Astronomical Twilight
Moon
Length of Visible Light
Length of Day
Tomorrow will be .
, % of the Moon is Illuminated

Today's Extremes

State Highs State Lows

Community

WunderPhotos

Upload Photos

1,852,483 photos uploaded!

WunderBlogs® & News

Nearby

Air Quality

  Air Quality AQ Index Pollutant
Not available.

Snow Depth

Station Depth Elevation

Earthquake Activity

City Distance Mag. Time & Date
Minimum magnitude displayed is 2.5.

Coastal Water Temperatures

Place Temperature

Stations

Nearby Weather Stations

Station Location Temp. Windchill Dew Point Humidity Wind Precip. Elev Updated Type